Johnson, Vermont
Current Conditions -  °F | °C
As of 10:54 AM on Tuesday 21 Oct 2014 (Local Time) from KMVL Reporting Station
Light Rain Light Rain  
Wind Chill: 46°   Ceiling: 6000
Heat Index: 46°   Visibility: 10mi
Dew Point: 42°   Wind: 0mph
Humidity: 86%   Direction: NA
Pressure: 30.02"   Gusts: NA
Location:  44.64°N, 72.68°W
Report Text: KMVL 211454Z AUTO 00000KT 10SM -RA FEW031 BKN060 OVC070 08/06 A3002 RMK AO2 SLP171 P0000 60001 T00780056 51007
Loading
Personal Weather Stations






























Interactive Weather Map
Tropical Storm Tracking
New forecast layout! Learn more

10-Day Weather Forecast

Advertisements
Track Severe Weather on mobile